Fallon Colony, Nevada
Current Conditions -  °F | °C
As of 12:56 AM on Monday 20 Oct 2014 (Local Time) from KNFL Reporting Station
Clear Clear  
Wind Chill: 45°   Ceiling: Unl
Heat Index: 48°   Visibility: 10mi
Dew Point: 28°   Wind: 6mph
Humidity: 46%   Direction: 170°S
Pressure: 29.93"   Gusts: NA
Location:  39.5809°N, 118.333°W
Report Text: KNFL 200756Z AUTO 17005KT 10SM CLR 09/M02 A2993 RMK AO2 SLP109 T00891022 402610011
Loading
Personal Weather Stations






























Interactive Weather Map New forecast layout! Learn more

10-Day Weather Forecast

Advertisements
Track Severe Weather on mobile